Time;durP1;ratioP1;P1;durP2;ratioP2;P2;SDS_P1;SDS_P2;PMS_P1;PMS_P2;Temp;Humidity;BMP_temperature;BMP_pressure;BME280_temperature;BME280_humidity;BME280_pressure;Samples;Min_cycle;Max_cycle;Signal;HPM_P1;HPM_P2
2023/04/15 00:00:14;;;;;;;8.83;6.10;;;;;;;7.94;75.69;100866.12;1776929;80;21214;-57
2023/04/15 00:03:21;;;;;;;8.48;6.12;;;;;;;7.95;75.63;100870.56;1776941;80;21190;-56
2023/04/15 00:06:30;;;;;;;7.92;5.97;;;;;;;7.96;75.64;100869.55;1776125;79;21786;-56
2023/04/15 00:09:36;;;;;;;8.30;6.50;;;;;;;7.97;75.66;100865.83;1776165;81;21218;-57
2023/04/15 00:12:43;;;;;;;11.12;6.70;;;;;;;7.96;75.55;100872.80;1776074;79;21218;-57
2023/04/15 00:15:49;;;;;;;7.22;5.62;;;;;;;7.90;75.45;100881.53;1776354;80;21362;-57
2023/04/15 00:18:56;;;;;;;9.13;5.97;;;;;;;7.85;75.41;100885.23;1790193;80;21339;-58
2023/04/15 00:22:03;;;;;;;8.40;5.75;;;;;;;7.79;75.34;100888.51;1790710;78;21343;-57
2023/04/15 00:25:10;;;;;;;10.20;5.55;;;;;;;7.77;75.39;100879.64;1790838;80;21229;-57
2023/04/15 00:28:16;;;;;;;10.35;5.92;;;;;;;7.72;75.34;100883.30;1780685;80;21192;-56
2023/04/15 00:31:22;;;;;;;7.28;5.62;;;;;;;7.67;75.33;100891.05;1786275;80;21334;-57
2023/04/15 00:34:28;;;;;;;8.10;5.87;;;;;;;7.61;75.30;100887.89;1773331;81;21224;-58
2023/04/15 00:37:35;;;;;;;8.93;5.47;;;;;;;7.58;75.30;100886.83;1785740;80;21389;-57
2023/04/15 00:40:43;;;;;;;6.85;5.67;;;;;;;7.55;75.39;100892.56;1773328;81;21200;-57
2023/04/15 00:43:49;;;;;;;11.73;6.30;;;;;;;7.54;75.40;100889.98;1787122;80;21196;-57
2023/04/15 00:46:57;;;;;;;7.00;5.60;;;;;;;7.53;75.38;100899.17;1772130;80;21232;-57
2023/04/15 00:50:03;;;;;;;8.88;5.78;;;;;;;7.49;75.38;100900.45;1766386;81;21197;-58
2023/04/15 00:53:10;;;;;;;9.10;6.33;;;;;;;7.48;75.42;100902.30;1775706;80;21220;-58
2023/04/15 00:56:16;;;;;;;9.13;6.17;;;;;;;7.48;75.52;100901.46;1766399;81;21299;-57
2023/04/15 00:59:23;;;;;;;8.28;6.28;;;;;;;7.51;75.56;100906.13;1765440;81;21196;-57
2023/04/15 01:02:29;;;;;;;8.93;6.58;;;;;;;7.50;75.44;100903.03;1765398;81;21185;-58
2023/04/15 01:05:35;;;;;;;8.00;6.12;;;;;;;7.48;75.41;100907.75;1765954;81;21197;-57
2023/04/15 01:08:42;;;;;;;10.38;5.97;;;;;;;7.45;75.32;100908.56;1765420;81;21259;-57
2023/04/15 01:11:48;;;;;;;9.35;6.12;;;;;;;7.44;75.39;100915.86;1762851;81;21177;-57
2023/04/15 01:14:56;;;;;;;8.68;6.03;;;;;;;7.42;75.40;100905.60;1765505;81;21296;-56
2023/04/15 01:18:04;;;;;;;9.30;6.08;;;;;;;7.40;75.40;100910.33;1767495;81;21236;-57
2023/04/15 01:21:12;;;;;;;9.83;6.03;;;;;;;7.42;75.45;100915.14;1775722;81;21331;-58
2023/04/15 01:24:17;;;;;;;9.13;5.95;;;;;;;7.43;75.46;100914.64;1725158;82;21232;-57
2023/04/15 01:27:25;;;;;;;9.93;6.03;;;;;;;7.44;75.39;100914.50;1765780;81;21331;-58
2023/04/15 01:30:31;;;;;;;13.43;6.55;;;;;;;7.41;75.31;100914.79;1772794;81;21333;-58
2023/04/15 01:33:39;;;;;;;6.80;5.40;;;;;;;7.39;75.27;100916.78;1772616;81;21198;-58
2023/04/15 01:36:46;;;;;;;11.12;5.65;;;;;;;7.37;75.20;100921.51;1772613;79;21225;-58
2023/04/15 01:39:52;;;;;;;9.03;6.05;;;;;;;7.28;74.99;100912.84;1772710;80;21186;-58
2023/04/15 01:43:00;;;;;;;9.65;5.70;;;;;;;7.24;75.05;100909.19;1770468;79;21202;-56
2023/04/15 01:46:06;;;;;;;7.92;5.67;;;;;;;7.24;75.10;100915.50;1769527;80;21195;-57
2023/04/15 01:49:13;;;;;;;9.10;5.83;;;;;;;7.22;75.08;100920.22;1767953;81;21238;-58
2023/04/15 01:52:19;;;;;;;8.43;5.97;;;;;;;7.19;75.07;100916.91;1767723;80;21290;-58
2023/04/15 01:55:25;;;;;;;9.53;6.45;;;;;;;7.17;75.08;100918.91;1748659;81;21364;-58
2023/04/15 01:58:30;;;;;;;10.25;7.17;;;;;;;7.15;75.07;100920.41;1735418;82;21182;-57
2023/04/15 02:01:37;;;;;;;11.40;6.40;;;;;;;7.13;75.00;100926.52;1733771;81;21368;-57
2023/04/15 02:04:44;;;;;;;9.55;6.60;;;;;;;7.04;74.81;100926.50;1735751;82;21898;-58
2023/04/15 02:07:52;;;;;;;8.95;6.47;;;;;;;7.00;74.86;100928.64;1733768;81;21408;-57
2023/04/15 02:11:01;;;;;;;12.13;5.55;;;;;;;7.00;74.96;100916.88;1714325;81;21381;-58
2023/04/15 02:14:08;;;;;;;11.18;6.12;;;;;;;7.01;74.96;100925.39;1733419;83;21186;-58
2023/04/15 02:17:15;;;;;;;11.97;6.10;;;;;;;7.00;75.06;100925.91;1742066;81;21214;-58
2023/04/15 02:20:22;;;;;;;10.40;6.72;;;;;;;7.03;75.09;100924.77;1754519;81;21210;-57
2023/04/15 02:23:28;;;;;;;8.95;6.15;;;;;;;7.04;75.12;100922.42;1746483;82;21745;-58
2023/04/15 02:26:37;;;;;;;8.65;5.70;;;;;;;7.04;75.12;100923.78;1778083;79;21205;-57
2023/04/15 02:29:44;;;;;;;9.23;6.35;;;;;;;7.01;75.03;100922.18;1768021;80;21257;-57
2023/04/15 02:32:52;;;;;;;10.43;6.28;;;;;;;6.97;74.98;100922.12;1768066;80;21424;-57
2023/04/15 02:35:59;;;;;;;11.75;5.85;;;;;;;6.95;74.97;100926.83;1768011;80;21257;-57
2023/04/15 02:39:09;;;;;;;12.78;6.97;;;;;;;6.94;74.96;100936.00;1768209;81;21206;-57
2023/04/15 02:42:15;;;;;;;8.65;6.25;;;;;;;6.89;74.88;100943.72;1767751;80;21174;-56
2023/04/15 02:45:26;;;;;;;11.63;6.78;;;;;;;6.90;74.96;100941.84;1767963;81;21195;-57
2023/04/15 02:48:32;;;;;;;11.12;7.10;;;;;;;6.91;75.02;100944.94;1767718;81;21333;-57
2023/04/15 02:51:38;;;;;;;11.63;6.75;;;;;;;6.91;75.02;100939.50;1767839;80;21262;-57
2023/04/15 02:54:44;;;;;;;12.63;7.05;;;;;;;6.89;74.99;100949.16;1767669;81;21332;-58
2023/04/15 02:57:50;;;;;;;11.55;6.78;;;;;;;6.90;75.00;100939.98;1767541;80;21577;-58
2023/04/15 03:00:56;;;;;;;11.08;6.50;;;;;;;6.89;74.94;100939.64;1767522;80;21170;-57
2023/04/15 03:04:02;;;;;;;8.38;6.30;;;;;;;6.89;74.93;100945.08;1767516;81;21214;-58
2023/04/15 03:07:09;;;;;;;18.15;6.92;;;;;;;6.88;74.88;100956.11;1767303;80;21265;-58
2023/04/15 03:10:17;;;;;;;13.60;6.92;;;;;;;6.88;74.91;100956.94;1767491;81;21195;-57
2023/04/15 03:13:23;;;;;;;12.07;6.92;;;;;;;6.88;74.89;100959.66;1767480;81;21360;-57
2023/04/15 03:16:32;;;;;;;10.25;6.20;;;;;;;6.87;74.88;100952.52;1767268;80;21261;-56
2023/04/15 03:19:41;;;;;;;8.90;6.67;;;;;;;6.89;74.88;100959.17;1767284;81;21191;-58
2023/04/15 03:22:47;;;;;;;11.20;6.28;;;;;;;6.89;74.88;100958.69;1767153;80;21319;-57
2023/04/15 03:25:58;;;;;;;12.28;7.08;;;;;;;6.89;74.85;100958.69;1766035;81;21174;-58
2023/04/15 03:29:04;;;;;;;10.95;7.20;;;;;;;6.90;74.79;100961.76;1764849;81;21788;-57
2023/04/15 03:32:13;;;;;;;9.30;6.50;;;;;;;6.89;74.77;100959.17;1731752;82;21671;-58
2023/04/15 03:35:20;;;;;;;10.82;6.30;;;;;;;6.91;74.80;100964.83;1733108;82;21687;-58
2023/04/15 03:38:29;;;;;;;11.73;6.85;;;;;;;6.90;74.74;100971.28;1732010;82;21253;-59
2023/04/15 03:41:35;;;;;;;8.95;6.20;;;;;;;6.91;74.72;100961.27;1732046;82;21363;-58
2023/04/15 03:44:43;;;;;;;10.38;7.15;;;;;;;6.91;74.72;100956.66;1731532;82;21281;-57
2023/04/15 03:47:50;;;;;;;12.70;7.33;;;;;;;6.89;74.61;100965.49;1731549;82;21341;-59
2023/04/15 03:50:59;;;;;;;9.90;6.47;;;;;;;6.89;74.61;100974.14;1731243;82;21344;-58
2023/04/15 03:54:07;;;;;;;9.25;6.40;;;;;;;6.89;74.59;100972.30;1731477;82;21340;-58
2023/04/15 03:57:14;;;;;;;8.95;6.75;;;;;;;6.92;74.67;100973.87;1734632;82;21256;-58
2023/04/15 04:00:19;;;;;;;13.32;6.92;;;;;;;6.95;74.69;100984.47;1756585;81;21201;-58
2023/04/15 04:03:27;;;;;;;10.35;6.90;;;;;;;6.98;74.68;100985.06;1746398;81;21181;-57
2023/04/15 04:06:34;;;;;;;11.03;7.10;;;;;;;6.98;74.59;100997.80;1760704;80;21208;-58
2023/04/15 04:09:40;;;;;;;13.58;7.25;;;;;;;6.99;74.56;101000.91;1762281;81;21706;-58
2023/04/15 04:12:49;;;;;;;12.05;6.50;;;;;;;7.00;74.48;101008.94;1762253;80;21385;-57
2023/04/15 04:15:55;;;;;;;13.13;7.15;;;;;;;6.92;74.16;101011.48;1753087;81;21226;-57
2023/04/15 04:19:02;;;;;;;11.00;6.60;;;;;;;6.79;74.06;101004.04;1756673;81;21199;-57
2023/04/15 04:22:09;;;;;;;13.18;6.62;;;;;;;6.82;74.33;101011.09;1756290;81;21298;-57
2023/04/15 04:25:16;;;;;;;9.80;6.72;;;;;;;6.89;74.50;101013.12;1757175;81;21215;-57
2023/04/15 04:28:23;;;;;;;10.43;7.65;;;;;;;6.96;74.58;101016.99;1757080;81;21203;-56
2023/04/15 04:31:28;;;;;;;15.93;7.50;;;;;;;7.03;74.58;101015.45;1715372;82;21192;-58
2023/04/15 04:34:36;;;;;;;11.00;7.28;;;;;;;7.10;74.60;101017.97;1739358;82;21354;-57
2023/04/15 04:37:42;;;;;;;13.90;7.70;;;;;;;7.12;74.36;101024.15;1734650;82;21192;-56
2023/04/15 04:40:48;;;;;;;11.97;6.90;;;;;;;7.13;74.35;101037.27;1731034;83;21184;-58
2023/04/15 04:43:53;;;;;;;10.45;6.92;;;;;;;7.22;74.44;101035.94;1731054;83;21856;-56
2023/04/15 04:47:00;;;;;;;14.87;7.40;;;;;;;7.35;74.54;101040.65;1731038;83;21757;-58
2023/04/15 04:50:05;;;;;;;13.68;7.83;;;;;;;7.46;74.46;101038.30;1712916;82;21149;-58
2023/04/15 04:53:11;;;;;;;9.70;7.17;;;;;;;7.46;74.23;101036.44;1731561;83;21220;-58
2023/04/15 04:56:19;;;;;;;11.80;6.65;;;;;;;7.55;74.26;101042.89;1731578;83;21184;-57
2023/04/15 04:59:26;;;;;;;15.20;6.90;;;;;;;7.63;74.23;101044.94;1731533;83;21149;-59
2023/04/15 05:02:31;;;;;;;8.08;6.72;;;;;;;7.71;74.20;101051.91;1721289;81;21300;-57
2023/04/15 05:05:39;;;;;;;15.58;7.37;;;;;;;7.79;74.18;101056.99;1773891;80;21368;-57
2023/04/15 05:08:48;;;;;;;10.80;7.42;;;;;;;7.80;74.02;101053.25;1773400;81;21197;-57
2023/04/15 05:11:55;;;;;;;10.85;6.75;;;;;;;7.86;74.02;101058.66;1773370;81;21251;-57
2023/04/15 05:15:02;;;;;;;9.90;6.40;;;;;;;7.95;74.03;101060.52;1773790;81;21192;-57
2023/04/15 05:18:07;;;;;;;14.93;6.60;;;;;;;7.99;73.98;101054.63;1773060;81;21283;-57
2023/04/15 05:21:13;;;;;;;9.23;6.53;;;;;;;8.07;73.93;101060.75;1772715;81;21358;-58
2023/04/15 05:24:22;;;;;;;10.32;6.65;;;;;;;8.11;73.85;101052.62;1771577;81;21212;-57
2023/04/15 05:27:27;;;;;;;9.38;6.62;;;;;;;8.12;73.74;101056.58;1772407;81;21370;-57
2023/04/15 05:30:34;;;;;;;10.75;6.85;;;;;;;8.17;73.80;101060.23;1756027;80;21193;-58
2023/04/15 05:33:40;;;;;;;11.78;7.33;;;;;;;8.24;73.77;101059.56;1776029;80;21216;-57
2023/04/15 05:36:46;;;;;;;12.98;6.17;;;;;;;8.28;73.50;101060.11;1780864;80;21382;-58
2023/04/15 05:39:52;;;;;;;10.60;6.70;;;;;;;8.34;73.53;101063.13;1781055;80;21386;-58
2023/04/15 05:42:58;;;;;;;8.23;5.97;;;;;;;8.43;73.49;101056.81;1780918;80;21212;-58
2023/04/15 05:46:04;;;;;;;11.45;6.53;;;;;;;8.54;73.37;101063.48;1781266;80;21200;-58
2023/04/15 05:49:10;;;;;;;11.40;6.45;;;;;;;8.60;73.25;101076.53;1759061;80;21235;-58
2023/04/15 05:52:18;;;;;;;12.10;6.87;;;;;;;8.60;73.14;101064.74;1781122;80;21235;-58
2023/04/15 05:55:24;;;;;;;10.13;6.00;;;;;;;8.63;73.11;101080.33;1781241;80;21334;-58
2023/04/15 05:58:29;;;;;;;14.33;6.37;;;;;;;8.70;73.14;101073.29;1781256;80;21232;-58
2023/04/15 06:01:41;;;;;;;8.68;5.90;;;;;;;8.73;72.99;101083.04;1781202;80;21346;-57
2023/04/15 06:04:51;;;;;;;10.90;5.62;;;;;;;8.75;72.84;101074.20;1781071;80;21188;-58
2023/04/15 06:07:58;;;;;;;10.72;6.85;;;;;;;8.64;72.59;101072.48;1781349;79;21369;-57
2023/04/15 06:11:06;;;;;;;8.10;6.00;;;;;;;8.63;72.70;101082.19;1781008;79;21259;-58
2023/04/15 06:14:13;;;;;;;10.10;5.80;;;;;;;8.68;72.76;101079.88;1786976;80;21172;-57
2023/04/15 06:17:21;;;;;;;14.07;8.70;;;;;;;8.75;72.87;101087.86;1787334;79;21389;-57
2023/04/15 06:20:28;;;;;;;9.55;6.70;;;;;;;8.82;72.86;101084.87;1749561;82;21211;-58
2023/04/15 06:23:35;;;;;;;7.85;5.70;;;;;;;8.85;72.73;101084.58;1749690;82;21735;-58
2023/04/15 06:26:43;;;;;;;9.45;5.78;;;;;;;8.85;72.65;101086.81;1750125;82;21950;-57
2023/04/15 06:29:50;;;;;;;8.95;5.15;;;;;;;8.84;72.58;101090.56;1749995;82;21204;-58
2023/04/15 06:32:57;;;;;;;8.58;5.40;;;;;;;8.86;72.62;101089.89;1751300;79;21856;-58
2023/04/15 06:36:03;;;;;;;12.82;5.55;;;;;;;8.85;72.63;101092.77;1746077;81;21761;-58
2023/04/15 06:39:10;;;;;;;9.43;5.40;;;;;;;8.86;72.53;101095.88;1740708;82;21836;-58
2023/04/15 06:42:15;;;;;;;10.38;5.50;;;;;;;8.90;72.58;101095.92;1740608;82;21577;-57
2023/04/15 06:45:23;;;;;;;7.95;5.22;;;;;;;8.84;72.32;101103.34;1740934;82;21189;-58
2023/04/15 06:48:29;;;;;;;7.60;4.83;;;;;;;8.80;72.29;101110.96;1739577;82;21258;-58
2023/04/15 06:51:34;;;;;;;9.38;5.00;;;;;;;8.70;72.15;101116.96;1740476;82;21208;-58
2023/04/15 06:54:42;;;;;;;6.50;5.08;;;;;;;8.67;72.28;101119.11;1740612;82;21211;-58
2023/04/15 06:57:50;;;;;;;9.35;5.08;;;;;;;8.63;72.19;101125.85;1768967;79;21229;-57
2023/04/15 07:00:56;;;;;;;11.30;5.05;;;;;;;8.68;72.28;101119.45;1789703;79;21252;-58
2023/04/15 07:04:02;;;;;;;9.73;5.05;;;;;;;8.66;72.17;101125.06;1785295;79;21197;-58
2023/04/15 07:07:02;;;;;;;6.83;4.75;;;;;;;8.67;72.25;101125.41;1790852;79;21383;-58
2023/04/15 07:09:57;;;;;;;7.05;3.85;;;;;;;8.80;72.52;101129.23;1783881;79;21237;-57
2023/04/15 07:12:44;;;;;;;5.75;4.00;;;;;;;8.92;72.55;101131.64;1770565;81;21208;-57
2023/04/15 07:15:37;;;;;;;6.12;4.10;;;;;;;8.89;72.21;101137.90;1770604;81;21173;-59
2023/04/15 07:18:43;;;;;;;6.15;4.25;;;;;;;8.85;72.21;101137.81;1769918;81;21570;-57
2023/04/15 07:21:51;;;;;;;6.80;4.70;;;;;;;8.85;72.16;101146.88;1753323;81;21236;-58
2023/04/15 07:24:57;;;;;;;9.60;4.72;;;;;;;8.85;72.05;101148.73;1762989;81;21861;-57
2023/04/15 07:28:02;;;;;;;7.37;4.50;;;;;;;8.90;72.02;101138.23;1763629;81;21371;-58
2023/04/15 07:31:10;;;;;;;9.58;4.42;;;;;;;8.92;72.03;101150.76;1763998;81;21252;-59
2023/04/15 07:34:20;;;;;;;6.45;4.00;;;;;;;8.89;71.92;101153.78;1769047;79;21871;-58
2023/04/15 07:37:28;;;;;;;7.42;4.05;;;;;;;8.84;71.83;101155.22;1773589;79;21226;-58
2023/04/15 07:40:34;;;;;;;8.20;4.03;;;;;;;8.87;71.92;101141.27;1780524;80;21236;-57
2023/04/15 07:43:40;;;;;;;7.05;4.42;;;;;;;8.86;71.80;101154.05;1778825;80;21248;-58
2023/04/15 07:46:47;;;;;;;6.83;4.60;;;;;;;8.82;71.67;101151.77;1744657;81;21276;-57
2023/04/15 07:49:54;;;;;;;5.95;4.40;;;;;;;8.83;71.81;101157.59;1744060;81;21778;-58
2023/04/15 07:53:03;;;;;;;6.35;4.15;;;;;;;8.93;71.91;101159.79;1744820;81;21685;-58
2023/04/15 07:56:09;;;;;;;8.00;4.25;;;;;;;8.90;71.66;101160.95;1744608;81;21781;-57
2023/04/15 07:59:16;;;;;;;6.35;4.00;;;;;;;8.91;71.77;101166.77;1744726;81;21196;-58
2023/04/15 08:02:22;;;;;;;6.05;4.05;;;;;;;8.97;71.82;101162.60;1744966;81;21770;-58
2023/04/15 08:05:30;;;;;;;5.95;4.00;;;;;;;9.05;71.87;101176.39;1749105;80;21354;-57
2023/04/15 08:08:36;;;;;;;5.20;3.65;;;;;;;9.08;71.65;101177.45;1714424;83;21240;-57
2023/04/15 08:11:43;;;;;;;5.80;4.25;;;;;;;8.92;71.28;101167.64;1714375;83;21753;-57
2023/04/15 08:14:49;;;;;;;6.15;3.75;;;;;;;8.86;71.36;101177.78;1714516;83;21781;-57
2023/04/15 08:17:59;;;;;;;5.80;3.90;;;;;;;8.91;71.59;101170.86;1759868;81;21280;-57
2023/04/15 08:21:07;;;;;;;7.97;4.83;;;;;;;8.96;71.66;101169.92;1752935;81;21784;-57
2023/04/15 08:24:13;;;;;;;8.73;4.17;;;;;;;8.89;71.28;101165.20;1764830;81;21185;-57
2023/04/15 08:27:20;;;;;;;6.05;4.12;;;;;;;8.70;71.18;101167.95;1747147;81;21578;-57
2023/04/15 08:30:26;;;;;;;6.90;4.20;;;;;;;8.68;71.37;101164.50;1764126;81;21197;-57
2023/04/15 08:33:32;;;;;;;7.37;4.42;;;;;;;8.70;71.48;101162.00;1764214;81;21182;-56
2023/04/15 08:36:38;;;;;;;10.75;4.62;;;;;;;8.75;71.53;101171.95;1746642;80;21201;-58
2023/04/15 08:39:46;;;;;;;7.03;4.50;;;;;;;8.84;71.60;101171.59;1765164;81;21240;-58
2023/04/15 08:42:53;;;;;;;6.87;4.40;;;;;;;8.99;71.66;101161.96;1764363;81;21209;-57
2023/04/15 08:46:00;;;;;;;6.25;3.77;;;;;;;9.10;71.62;101167.25;1764202;81;21241;-57
2023/04/15 08:49:12;;;;;;;5.25;4.33;;;;;;;9.09;71.37;101161.41;1755817;81;21185;-58
2023/04/15 08:52:18;;;;;;;7.58;4.30;;;;;;;9.16;71.36;101162.56;1761649;81;21157;-58
2023/04/15 08:55:23;;;;;;;10.28;4.30;;;;;;;9.25;71.28;101160.79;1758503;81;21284;-58
2023/04/15 08:58:31;;;;;;;6.22;4.17;;;;;;;9.23;71.04;101168.30;1747810;82;21193;-58
2023/04/15 09:01:36;;;;;;;8.53;4.12;;;;;;;9.25;71.12;101164.39;1749037;82;21197;-58
2023/04/15 09:04:44;;;;;;;6.15;4.28;;;;;;;9.40;71.26;101169.75;1749535;81;21837;-56
2023/04/15 09:07:51;;;;;;;7.95;4.03;;;;;;;9.51;71.19;101180.99;1749510;81;21213;-58
2023/04/15 09:10:58;;;;;;;8.25;3.52;;;;;;;9.59;71.15;101169.68;1749117;82;21750;-58
2023/04/15 09:14:05;;;;;;;5.72;3.77;;;;;;;9.59;71.01;101179.74;1755792;80;21189;-57
2023/04/15 09:17:12;;;;;;;6.83;3.80;;;;;;;9.66;70.93;101177.61;1778965;80;21471;-56
2023/04/15 09:20:20;;;;;;;6.05;3.85;;;;;;;9.69;70.77;101185.52;1784386;79;21191;-57
2023/04/15 09:23:26;;;;;;;5.00;3.47;;;;;;;9.61;70.62;101194.97;1785190;78;21271;-57
2023/04/15 09:26:43;;;;;;;6.50;3.77;;;;;;;9.64;70.73;101203.39;1742675;82;22193;-58
2023/04/15 09:29:49;;;;;;;10.63;3.70;;;;;;;9.68;70.75;101207.04;1742858;82;21199;-57
2023/04/15 09:33:09;;;;;;;10.60;4.30;;;;;;;9.79;70.85;101201.38;1743336;82;21203;-58
2023/04/15 09:36:19;;;;;;;9.20;4.05;;;;;;;9.87;70.85;101193.28;1765839;79;21207;-58
2023/04/15 09:39:26;;;;;;;7.22;4.33;;;;;;;9.75;70.48;101212.25;1760781;80;21346;-57
2023/04/15 09:42:33;;;;;;;6.53;3.87;;;;;;;9.71;70.53;101207.23;1780987;78;21224;-57
2023/04/15 09:45:38;;;;;;;8.55;4.30;;;;;;;9.76;70.70;101207.16;1775763;80;21209;-57
2023/04/15 09:48:47;;;;;;;5.60;4.17;;;;;;;9.77;70.54;101182.89;1767388;78;21215;-59
2023/04/15 09:51:52;;;;;;;5.67;4.03;;;;;;;9.70;70.39;101198.69;1770687;80;21296;-58
2023/04/15 09:55:05;;;;;;;5.45;4.20;;;;;;;9.71;70.45;101200.39;1763499;80;21208;-58
2023/04/15 09:58:11;;;;;;;5.58;3.42;;;;;;;9.66;70.35;101213.16;1751198;80;22124;-56
2023/04/15 10:01:17;;;;;;;4.75;3.90;;;;;;;9.63;70.30;101219.42;1751634;80;21215;-57
2023/04/15 10:04:23;;;;;;;9.63;3.55;;;;;;;9.59;70.22;101213.41;1760109;81;21885;-56
2023/04/15 10:07:28;;;;;;;4.70;3.50;;;;;;;9.64;70.32;101212.44;1759828;80;21228;-57
2023/04/15 10:10:33;;;;;;;4.70;3.25;;;;;;;9.74;70.45;101217.37;1767734;81;21199;-58
2023/04/15 10:13:40;;;;;;;7.72;3.80;;;;;;;9.83;70.35;101216.98;1768124;81;21205;-57
2023/04/15 10:16:47;;;;;;;9.15;4.28;;;;;;;9.76;70.01;101213.98;1778685;80;21212;-57
2023/04/15 10:19:55;;;;;;;6.70;3.80;;;;;;;9.69;69.92;101217.48;1765765;81;21223;-58
2023/04/15 10:23:02;;;;;;;6.08;4.10;;;;;;;9.67;69.93;101224.43;1766097;81;21216;-58
2023/04/15 10:26:13;;;;;;;7.25;4.45;;;;;;;9.70;70.00;101225.53;1741159;81;21226;-58
2023/04/15 10:29:19;;;;;;;11.25;4.62;;;;;;;9.72;69.91;101228.11;1766114;79;21224;-58
2023/04/15 10:32:27;;;;;;;6.67;4.20;;;;;;;9.75;69.85;101228.65;1768446;81;21570;-58
2023/04/15 10:35:32;;;;;;;7.20;5.15;;;;;;;9.71;69.80;101236.81;1746898;82;21200;-58
2023/04/15 10:38:50;;;;;;;9.68;4.03;;;;;;;9.70;69.90;101243.80;1738331;82;21816;-57
2023/04/15 10:42:10;;;;;;;12.55;5.37;;;;;;;9.76;70.02;101251.40;1742373;81;21543;-57
2023/04/15 10:45:20;;;;;;;6.72;5.05;;;;;;;9.75;69.99;101237.37;1740926;82;21753;-56
2023/04/15 10:48:26;;;;;;;12.58;4.78;;;;;;;9.83;70.18;101247.91;1730544;81;21530;-58
2023/04/15 10:51:41;;;;;;;13.13;6.28;;;;;;;9.96;70.26;101255.27;1780831;80;21200;-58
2023/04/15 10:54:46;;;;;;;12.58;5.42;;;;;;;10.02;70.17;101240.14;1778677;80;21825;-58
2023/04/15 10:57:53;;;;;;;7.35;4.53;;;;;;;10.08;70.09;101243.67;1778757;80;21207;-59
2023/04/15 11:01:01;;;;;;;10.45;4.53;;;;;;;10.08;69.86;101245.03;1775283;80;21198;-61
2023/04/15 11:04:08;;;;;;;10.93;5.10;;;;;;;10.03;69.70;101244.59;1778501;79;21186;-58
2023/04/15 11:07:17;;;;;;;9.85;4.75;;;;;;;10.09;69.82;101238.54;1783100;79;21852;-57
2023/04/15 11:10:41;;;;;;;10.40;4.80;;;;;;;10.13;69.85;101239.45;1802862;79;21181;-58
2023/04/15 11:13:56;;;;;;;8.88;4.65;;;;;;;10.21;69.88;101234.60;1809866;79;21244;-59
2023/04/15 11:17:02;;;;;;;10.68;5.03;;;;;;;10.14;69.57;101237.09;1806468;79;21251;-57
2023/04/15 11:20:09;;;;;;;9.80;4.22;;;;;;;10.14;69.63;101237.09;1800898;79;21189;-58
2023/04/15 11:23:16;;;;;;;9.28;4.65;;;;;;;10.22;69.72;101233.58;1797882;80;21841;-59
2023/04/15 11:26:22;;;;;;;10.20;4.50;;;;;;;10.19;69.62;101240.23;1799293;79;21263;-59
2023/04/15 11:29:27;;;;;;;6.58;4.22;;;;;;;10.22;69.48;101237.19;1798102;79;21260;-57
2023/04/15 11:32:34;;;;;;;7.28;4.08;;;;;;;10.17;69.40;101234.05;1779617;79;21181;-58
2023/04/15 11:35:40;;;;;;;8.73;4.45;;;;;;;10.21;69.47;101244.18;1797051;79;21845;-59
2023/04/15 11:38:51;;;;;;;6.85;4.30;;;;;;;10.34;69.56;101237.31;1780004;79;21541;-57
2023/04/15 11:41:57;;;;;;;9.23;4.65;;;;;;;10.44;69.55;101230.41;1784517;78;21212;-57
2023/04/15 11:45:22;;;;;;;5.60;4.20;;;;;;;10.44;69.23;101223.07;1737945;82;21252;-58
2023/04/15 11:48:32;;;;;;;8.55;4.37;;;;;;;10.37;69.01;101226.05;1737468;82;21362;-56
2023/04/15 11:51:40;;;;;;;8.10;4.22;;;;;;;10.25;68.95;101236.87;1766819;80;21358;-57
2023/04/15 11:54:48;;;;;;;14.38;4.45;;;;;;;10.18;69.05;101224.80;1765188;81;21707;-57
2023/04/15 11:57:53;;;;;;;8.98;4.70;;;;;;;10.26;69.35;101242.70;1768387;81;21200;-59
2023/04/15 12:01:06;;;;;;;8.43;4.12;;;;;;;10.29;69.30;101229.23;1765187;81;21818;-57
2023/04/15 12:04:24;;;;;;;8.33;4.47;;;;;;;10.32;69.25;101231.13;1765477;81;21228;-57
2023/04/15 12:07:30;;;;;;;9.08;4.40;;;;;;;10.32;69.18;101242.08;1765691;81;21227;-58
2023/04/15 12:10:39;;;;;;;7.65;4.10;;;;;;;10.36;69.23;101238.53;1765200;81;21846;-57
2023/04/15 12:13:45;;;;;;;9.30;4.58;;;;;;;10.38;69.23;101234.64;1764755;81;21750;-57
2023/04/15 12:16:56;;;;;;;10.63;3.85;;;;;;;10.43;69.24;101232.28;1765340;81;21213;-58
2023/04/15 12:20:03;;;;;;;17.90;4.53;;;;;;;10.51;69.25;101231.00;1765587;81;21797;-58
2023/04/15 12:23:15;;;;;;;5.35;3.80;;;;;;;10.44;69.05;101236.76;1765504;81;21318;-58
2023/04/15 12:26:20;;;;;;;13.28;5.00;;;;;;;10.39;69.02;101239.09;1747892;81;21754;-57
2023/04/15 12:29:26;;;;;;;5.05;4.10;;;;;;;10.37;69.05;101224.69;1765312;81;21177;-58
2023/04/15 12:32:32;;;;;;;8.43;4.08;;;;;;;10.31;68.99;101223.07;1761982;81;21237;-57
2023/04/15 12:35:39;;;;;;;8.75;4.47;;;;;;;10.30;69.11;101224.09;1766600;81;21209;-58
2023/04/15 12:38:46;;;;;;;7.75;4.45;;;;;;;10.33;69.16;101225.16;1765280;81;21251;-57
2023/04/15 12:41:51;;;;;;;6.42;4.10;;;;;;;10.29;69.13;101220.48;1769402;80;21785;-57
2023/04/15 12:44:57;;;;;;;6.45;4.10;;;;;;;10.26;69.14;101222.17;1770425;81;21303;-57
2023/04/15 12:48:02;;;;;;;7.65;3.92;;;;;;;10.25;69.14;101215.48;1764118;81;21213;-57
2023/04/15 12:51:07;;;;;;;8.28;4.42;;;;;;;10.19;68.99;101216.97;1764514;81;21228;-57
2023/04/15 12:54:13;;;;;;;11.88;5.15;;;;;;;10.18;69.04;101219.86;1767475;81;21754;-57
2023/04/15 12:57:18;;;;;;;10.80;4.42;;;;;;;10.20;69.07;101220.55;1764673;81;21193;-58
2023/04/15 13:00:24;;;;;;;5.67;4.33;;;;;;;10.21;69.00;101224.50;1764533;81;21240;-58
2023/04/15 13:03:32;;;;;;;8.40;3.95;;;;;;;10.20;68.95;101213.70;1764633;81;21208;-58
2023/04/15 13:06:38;;;;;;;6.15;3.98;;;;;;;10.22;69.04;101207.09;1763781;80;21305;-58
2023/04/15 13:09:46;;;;;;;7.72;4.10;;;;;;;10.27;68.93;101218.94;1726164;82;21190;-58
2023/04/15 13:12:52;;;;;;;9.80;3.92;;;;;;;10.29;68.93;101214.18;1726667;81;21256;-58
2023/04/15 13:16:01;;;;;;;6.25;3.92;;;;;;;10.32;68.95;101216.08;1726701;81;21189;-57
2023/04/15 13:19:07;;;;;;;6.67;4.20;;;;;;;10.36;68.90;101213.90;1726449;83;21201;-57
2023/04/15 13:22:15;;;;;;;8.35;4.12;;;;;;;10.36;68.75;101209.30;1752922;80;21277;-56
2023/04/15 13:25:22;;;;;;;8.80;3.98;;;;;;;10.39;68.81;101199.40;1747698;80;21213;-58
2023/04/15 13:28:28;;;;;;;8.13;3.87;;;;;;;10.46;68.83;101207.33;1748850;80;21394;-58
2023/04/15 13:31:34;;;;;;;7.80;3.67;;;;;;;10.46;68.70;101203.22;1746607;81;21256;-58
2023/04/15 13:34:41;;;;;;;6.37;4.05;;;;;;;10.52;68.85;101207.23;1775760;80;21254;-57
2023/04/15 13:37:47;;;;;;;5.95;3.85;;;;;;;10.61;68.80;101199.97;1776481;80;21216;-57
2023/04/15 13:40:54;;;;;;;6.53;3.98;;;;;;;10.66;68.71;101190.75;1751594;80;21192;-57
2023/04/15 13:44:00;;;;;;;5.58;3.80;;;;;;;10.70;68.61;101194.42;1750795;82;21239;-57
2023/04/15 13:47:06;;;;;;;10.90;3.95;;;;;;;10.72;68.46;101186.05;1750728;81;21322;-58
2023/04/15 13:50:13;;;;;;;5.40;3.65;;;;;;;10.74;68.51;101192.20;1751355;82;21180;-57
2023/04/15 13:53:21;;;;;;;9.40;4.33;;;;;;;10.77;68.50;101193.25;1750711;81;21236;-57
2023/04/15 13:56:27;;;;;;;6.30;3.80;;;;;;;10.70;68.34;101200.39;1751210;81;21577;-58
2023/04/15 13:59:33;;;;;;;8.38;4.25;;;;;;;10.64;68.29;101183.23;1750581;81;21292;-58
2023/04/15 14:02:38;;;;;;;7.17;3.85;;;;;;;10.58;68.30;101196.52;1748197;81;21204;-57
2023/04/15 14:05:45;;;;;;;5.83;3.90;;;;;;;10.54;68.28;101202.47;1747257;82;21260;-59
2023/04/15 14:08:50;;;;;;;7.75;3.80;;;;;;;10.51;68.33;101194.57;1751174;81;21342;-57
2023/04/15 14:11:58;;;;;;;8.08;4.12;;;;;;;10.44;68.26;101192.09;1751205;81;21239;-57
2023/04/15 14:15:05;;;;;;;7.47;4.33;;;;;;;10.28;68.05;101194.65;1751712;82;21737;-57
2023/04/15 14:18:11;;;;;;;5.50;3.65;;;;;;;10.23;68.25;101201.95;1751346;81;21361;-58
2023/04/15 14:21:19;;;;;;;8.58;4.25;;;;;;;10.31;68.45;101193.84;1751881;81;21228;-58
2023/04/15 14:24:28;;;;;;;9.00;4.17;;;;;;;10.35;68.42;101197.97;1751934;82;21665;-57
2023/04/15 14:27:33;;;;;;;8.05;4.42;;;;;;;10.28;68.31;101191.41;1751917;81;21236;-57
2023/04/15 14:30:40;;;;;;;10.23;5.17;;;;;;;10.23;68.23;101207.42;1727301;82;21208;-57
2023/04/15 14:33:45;;;;;;;12.58;5.47;;;;;;;10.20;68.30;101195.42;1752397;82;21296;-57